createdAt,value
2019-01-18T00:00:21.152Z,998.31
2019-01-18T00:01:21.997Z,998.30
2019-01-18T00:02:28.294Z,998.28
2019-01-18T00:03:21.468Z,998.32
2019-01-18T00:04:21.157Z,998.30
2019-01-18T00:05:21.113Z,998.36
2019-01-18T00:06:21.099Z,998.39
2019-01-18T00:07:21.528Z,998.35
2019-01-18T00:08:21.057Z,998.41
2019-01-18T00:09:21.046Z,998.38
2019-01-18T00:10:21.042Z,998.36
2019-01-18T00:11:21.024Z,998.46
2019-01-18T00:12:21.071Z,998.40
2019-01-18T00:13:21.018Z,998.40
2019-01-18T00:14:20.980Z,998.46
2019-01-18T00:15:20.996Z,998.39
2019-01-18T00:16:20.995Z,998.44
2019-01-18T00:17:20.989Z,998.45
2019-01-18T00:18:20.941Z,998.42
2019-01-18T00:19:20.990Z,998.47
2019-01-18T00:20:20.918Z,998.50
2019-01-18T00:21:20.933Z,998.49
2019-01-18T00:22:20.934Z,998.53
2019-01-18T00:23:20.904Z,998.56
2019-01-18T00:24:20.916Z,998.53
2019-01-18T00:25:20.877Z,998.54
2019-01-18T00:26:20.881Z,998.47
2019-01-18T00:27:20.875Z,998.56
2019-01-18T00:28:20.876Z,998.59
2019-01-18T00:29:20.836Z,998.67
2019-01-18T00:30:20.840Z,998.58
2019-01-18T00:31:20.802Z,998.68
2019-01-18T00:32:20.830Z,998.55
2019-01-18T00:33:20.815Z,998.68
2019-01-18T00:34:20.762Z,998.65
2019-01-18T00:35:20.764Z,998.67
2019-01-18T00:36:20.759Z,998.65
2019-01-18T00:37:20.778Z,998.70
2019-01-18T00:38:20.782Z,998.71
2019-01-18T00:39:20.748Z,998.69
2019-01-18T00:40:20.707Z,998.76
2019-01-18T00:41:20.705Z,998.81
2019-01-18T00:42:20.697Z,998.77
2019-01-18T00:43:20.697Z,998.81
2019-01-18T00:44:20.676Z,998.84
2019-01-18T00:45:20.681Z,998.82
2019-01-18T00:46:20.653Z,998.81
2019-01-18T00:47:21.043Z,998.86
2019-01-18T00:48:20.671Z,998.89
2019-01-18T00:49:20.632Z,998.85
2019-01-18T00:50:20.619Z,998.87
2019-01-18T00:51:20.639Z,998.84
2019-01-18T00:52:20.615Z,998.92
2019-01-18T00:53:20.610Z,998.87
2019-01-18T00:54:21.503Z,998.90
2019-01-18T00:55:20.629Z,998.95
2019-01-18T00:56:20.548Z,998.98
2019-01-18T00:57:20.558Z,998.99
2019-01-18T00:58:20.562Z,998.96
2019-01-18T00:59:20.508Z,998.99
2019-01-18T01:00:22.097Z,999.03
2019-01-18T01:01:20.498Z,998.96
2019-01-18T01:02:20.514Z,999.01
2019-01-18T01:03:20.512Z,999.02
2019-01-18T01:04:20.452Z,999.11
2019-01-18T01:05:20.500Z,999.15
2019-01-18T01:06:21.033Z,999.19
2019-01-18T01:07:20.461Z,999.17
2019-01-18T01:08:20.453Z,999.20
2019-01-18T01:09:20.443Z,999.22
2019-01-18T01:10:20.429Z,999.26
2019-01-18T01:11:20.399Z,999.38
2019-01-18T01:12:20.409Z,999.40
2019-01-18T01:13:20.414Z,999.44
2019-01-18T01:14:20.376Z,999.45
2019-01-18T01:15:20.395Z,999.55
2019-01-18T01:16:20.337Z,999.69
2019-01-18T01:17:21.056Z,999.81
2019-01-18T01:18:20.336Z,999.77
2019-01-18T01:19:20.340Z,999.80
2019-01-18T01:20:20.331Z,999.85
2019-01-18T01:21:20.323Z,999.85
2019-01-18T01:22:20.376Z,999.91
2019-01-18T01:23:21.051Z,999.96
2019-01-18T01:24:20.276Z,1000.01
2019-01-18T01:25:20.262Z,1000.02
2019-01-18T01:26:20.255Z,1000.09
2019-01-18T01:27:20.296Z,1000.11
2019-01-18T01:28:20.266Z,1000.14
2019-01-18T01:29:21.028Z,1000.17
2019-01-18T01:30:20.218Z,1000.18
2019-01-18T01:31:21.050Z,1000.28
2019-01-18T01:32:20.186Z,1000.30
2019-01-18T01:33:20.211Z,1000.33
2019-01-18T01:34:20.149Z,1000.41
2019-01-18T01:35:21.031Z,1000.52
2019-01-18T01:36:20.137Z,1000.49
2019-01-18T01:37:20.166Z,1000.51
2019-01-18T01:38:20.176Z,1000.55
2019-01-18T01:39:20.118Z,1000.55
2019-01-18T01:40:20.091Z,1000.64
2019-01-18T01:41:20.073Z,1000.65
2019-01-18T01:42:28.230Z,1000.69
2019-01-18T01:43:28.219Z,1000.68
2019-01-18T01:44:28.204Z,1000.72
2019-01-18T01:45:27.649Z,1000.75
2019-01-18T01:46:20.384Z,1000.78
2019-01-18T01:47:20.188Z,1000.79
2019-01-18T01:48:20.054Z,1000.79
2019-01-18T01:49:19.997Z,1000.88
2019-01-18T01:50:20.001Z,1000.87
2019-01-18T01:51:28.119Z,1000.92
2019-01-18T01:53:31.199Z,1000.91
2019-01-18T01:54:38.205Z,1000.98
2019-01-18T01:55:39.244Z,1001.06
2019-01-18T01:56:42.097Z,1001.05
2019-01-18T01:57:31.274Z,1001.05
2019-01-18T01:58:31.113Z,1001.09
2019-01-18T01:59:31.064Z,1001.15
2019-01-18T02:00:31.073Z,1001.13
2019-01-18T02:01:31.008Z,1001.21
2019-01-18T02:02:31.055Z,1001.23
2019-01-18T02:03:30.988Z,1001.19
2019-01-18T02:04:30.994Z,1001.28
2019-01-18T02:05:31.023Z,1001.32
2019-01-18T02:06:30.974Z,1001.35
2019-01-18T02:07:30.954Z,1001.38
2019-01-18T02:08:30.939Z,1001.40
2019-01-18T02:09:31.519Z,1001.42
2019-01-18T02:10:30.933Z,1001.41
2019-01-18T02:11:30.914Z,1001.46
2019-01-18T02:12:30.926Z,1001.45
2019-01-18T02:13:30.905Z,1001.49
2019-01-18T02:14:30.925Z,1001.55
2019-01-18T02:15:30.923Z,1001.48
2019-01-18T02:16:30.880Z,1001.59
2019-01-18T02:17:30.867Z,1001.53
2019-01-18T02:18:30.897Z,1001.56
2019-01-18T02:19:30.876Z,1001.63
2019-01-18T02:20:30.805Z,1001.62
2019-01-18T02:21:30.809Z,1001.67
2019-01-18T02:22:30.838Z,1001.70
2019-01-18T02:23:30.819Z,1001.66
2019-01-18T02:24:30.784Z,1001.77
2019-01-18T02:25:30.774Z,1001.77
2019-01-18T02:26:30.760Z,1001.84
2019-01-18T02:27:37.918Z,1001.88
2019-01-18T02:28:30.774Z,1001.94
2019-01-18T02:29:37.901Z,1002.01
2019-01-18T02:30:38.777Z,1001.96
2019-01-18T02:31:30.950Z,1002.05
2019-01-18T02:32:38.929Z,1002.06
2019-01-18T02:33:38.762Z,1002.08
2019-01-18T02:34:30.888Z,1002.11
2019-01-18T02:35:30.721Z,1002.11
2019-01-18T02:36:30.680Z,1002.08
2019-01-18T02:37:30.638Z,1002.08
2019-01-18T02:38:30.685Z,1002.17
2019-01-18T02:39:30.604Z,1002.25
2019-01-18T02:40:30.630Z,1002.25
2019-01-18T02:41:30.600Z,1002.28
2019-01-18T02:42:30.659Z,1002.25
2019-01-18T02:43:30.581Z,1002.29
2019-01-18T02:44:30.589Z,1002.40
2019-01-18T02:45:30.564Z,1002.41
2019-01-18T02:46:30.548Z,1002.40
2019-01-18T02:47:30.541Z,1002.41
2019-01-18T02:48:30.599Z,1002.40
2019-01-18T02:49:30.522Z,1002.48
2019-01-18T02:50:31.133Z,1002.54
2019-01-18T02:51:30.524Z,1002.58
2019-01-18T02:52:30.489Z,1002.49
2019-01-18T02:53:30.489Z,1002.54
2019-01-18T02:54:30.452Z,1002.55
2019-01-18T02:55:30.453Z,1002.55
2019-01-18T02:56:30.454Z,1002.59
2019-01-18T02:57:31.017Z,1002.56
2019-01-18T02:58:30.458Z,1002.60
2019-01-18T02:59:30.433Z,1002.64
2019-01-18T03:00:30.391Z,1002.62
2019-01-18T03:01:30.398Z,1002.64
2019-01-18T03:02:30.370Z,1002.70
2019-01-18T03:03:30.419Z,1002.68
2019-01-18T03:04:30.363Z,1002.70
2019-01-18T03:05:30.356Z,1002.74
2019-01-18T03:06:30.328Z,1002.71
2019-01-18T03:07:30.352Z,1002.77
2019-01-18T03:08:30.347Z,1002.80
2019-01-18T03:09:30.299Z,1002.84
2019-01-18T03:10:30.304Z,1002.89
2019-01-18T03:11:30.278Z,1002.89
2019-01-18T03:12:30.259Z,1002.90
2019-01-18T03:13:30.271Z,1002.96
2019-01-18T03:14:30.248Z,1003.00
2019-01-18T03:15:30.247Z,1003.05
2019-01-18T03:16:30.225Z,1002.96
2019-01-18T03:17:30.239Z,1003.06
2019-01-18T03:18:30.236Z,1003.05
2019-01-18T03:19:38.312Z,1003.05
2019-01-18T03:20:39.245Z,1003.08
2019-01-18T03:21:38.346Z,1003.11
2019-01-18T03:22:37.233Z,1003.23
2019-01-18T03:23:37.253Z,1003.17
2019-01-18T03:24:30.244Z,1003.19
2019-01-18T03:25:37.190Z,1003.25
2019-01-18T03:26:30.173Z,1003.31
2019-01-18T03:27:30.224Z,1003.32
2019-01-18T03:28:30.135Z,1003.30
2019-01-18T03:29:30.166Z,1003.40
2019-01-18T03:30:30.084Z,1003.39
2019-01-18T03:31:30.069Z,1003.43
2019-01-18T03:32:30.071Z,1003.42
2019-01-18T03:33:30.098Z,1003.45
2019-01-18T03:34:30.055Z,1003.50
2019-01-18T03:35:30.046Z,1003.52
2019-01-18T03:36:30.063Z,1003.57
2019-01-18T03:37:30.042Z,1003.57
2019-01-18T03:38:30.006Z,1003.56
2019-01-18T03:39:29.987Z,1003.60
2019-01-18T03:40:29.975Z,1003.64
2019-01-18T03:41:29.965Z,1003.63
2019-01-18T03:42:29.988Z,1003.69
2019-01-18T03:43:29.981Z,1003.71
2019-01-18T03:44:29.944Z,1003.70
2019-01-18T03:45:29.921Z,1003.69
2019-01-18T03:46:29.912Z,1003.74
2019-01-18T03:47:29.923Z,1003.75
2019-01-18T03:48:29.907Z,1003.77
2019-01-18T03:49:29.900Z,1003.79
2019-01-18T03:50:29.860Z,1003.78
2019-01-18T03:51:29.875Z,1003.83
2019-01-18T03:52:29.853Z,1003.85
2019-01-18T03:53:29.907Z,1003.90
2019-01-18T03:54:29.849Z,1003.85
2019-01-18T03:55:29.813Z,1003.87
2019-01-18T03:56:29.817Z,1003.84
2019-01-18T03:57:29.808Z,1003.91
2019-01-18T03:58:29.836Z,1003.95
2019-01-18T03:59:29.793Z,1003.93
2019-01-18T04:00:29.780Z,1003.95
2019-01-18T04:01:29.754Z,1004.02
2019-01-18T04:02:29.760Z,1004.02
2019-01-18T04:03:29.742Z,1004.09
2019-01-18T04:04:29.722Z,1004.06
2019-01-18T04:05:36.886Z,1004.09
2019-01-18T04:06:36.936Z,1004.11
2019-01-18T04:07:29.820Z,1004.19
2019-01-18T04:08:29.727Z,1004.15
2019-01-18T04:09:29.726Z,1004.17
2019-01-18T04:10:29.688Z,1004.16
2019-01-18T04:11:29.660Z,1004.29
2019-01-18T04:12:37.722Z,1004.33
2019-01-18T04:13:29.789Z,1004.36
2019-01-18T04:14:29.871Z,1004.36
2019-01-18T04:15:29.665Z,1004.39
2019-01-18T04:16:29.708Z,1004.36
2019-01-18T04:17:29.625Z,1004.47
2019-01-18T04:18:29.604Z,1004.46
2019-01-18T04:19:29.566Z,1004.50
2019-01-18T04:20:37.742Z,1004.47
2019-01-18T04:21:29.927Z,1004.46
2019-01-18T04:22:38.686Z,1004.42
2019-01-18T04:23:37.707Z,1004.50
2019-01-18T04:24:37.447Z,1004.50
2019-01-18T04:25:36.688Z,1004.48
2019-01-18T04:26:36.660Z,1004.55
2019-01-18T04:27:36.798Z,1004.55
2019-01-18T04:28:36.743Z,1004.58
2019-01-18T04:29:37.599Z,1004.63
2019-01-18T04:30:38.075Z,1004.61
2019-01-18T04:31:36.565Z,1004.62
2019-01-18T04:32:29.692Z,1004.64
2019-01-18T04:33:29.550Z,1004.69
2019-01-18T04:34:29.489Z,1004.62
2019-01-18T04:35:29.450Z,1004.74
2019-01-18T04:36:29.408Z,1004.70
2019-01-18T04:37:29.400Z,1004.65
2019-01-18T04:38:29.374Z,1004.76
2019-01-18T04:39:29.377Z,1004.75
2019-01-18T04:40:29.401Z,1004.73
2019-01-18T04:41:29.344Z,1004.73
2019-01-18T04:42:29.370Z,1004.84
2019-01-18T04:43:29.338Z,1004.86
2019-01-18T04:44:29.336Z,1004.90
2019-01-18T04:45:30.086Z,1004.90
2019-01-18T04:46:29.273Z,1004.85
2019-01-18T04:47:29.282Z,1004.92
2019-01-18T04:48:29.282Z,1004.91
2019-01-18T04:49:29.313Z,1004.95
2019-01-18T04:50:29.250Z,1004.98
2019-01-18T04:51:29.261Z,1004.99
2019-01-18T04:52:29.251Z,1005.08
2019-01-18T04:53:29.212Z,1005.00
2019-01-18T04:54:37.640Z,1005.09
2019-01-18T04:55:29.369Z,1005.03
2019-01-18T04:56:37.286Z,1005.07
2019-01-18T04:57:29.211Z,1005.11
2019-01-18T04:58:29.214Z,1005.12
2019-01-18T04:59:29.169Z,1005.17
2019-01-18T05:00:29.140Z,1005.10
2019-01-18T05:01:29.117Z,1005.16
2019-01-18T05:02:29.126Z,1005.16
2019-01-18T05:03:29.103Z,1005.17
2019-01-18T05:04:29.130Z,1005.19
2019-01-18T05:05:29.095Z,1005.24
2019-01-18T05:06:29.075Z,1005.26
2019-01-18T05:07:29.061Z,1005.24
2019-01-18T05:08:29.078Z,1005.27
2019-01-18T05:09:29.084Z,1005.30
2019-01-18T05:10:29.626Z,1005.38
2019-01-18T05:11:29.016Z,1005.37
2019-01-18T05:12:29.005Z,1005.44
2019-01-18T05:13:28.991Z,1005.51
2019-01-18T05:14:29.026Z,1005.56
2019-01-18T05:15:29.044Z,1005.61
2019-01-18T05:16:28.995Z,1005.57
2019-01-18T05:17:28.985Z,1005.64
2019-01-18T05:18:28.947Z,1005.67
2019-01-18T05:19:28.963Z,1005.68
2019-01-18T05:20:28.922Z,1005.68
2019-01-18T05:21:28.925Z,1005.74
2019-01-18T05:22:28.949Z,1005.71
2019-01-18T05:23:28.954Z,1005.74
2019-01-18T05:24:28.923Z,1005.75
2019-01-18T05:25:28.874Z,1005.79
2019-01-18T05:26:28.859Z,1005.79
2019-01-18T05:27:28.867Z,1005.85
2019-01-18T05:28:28.869Z,1005.87
2019-01-18T05:29:29.586Z,1005.86
2019-01-18T05:30:28.837Z,1005.93
2019-01-18T05:31:28.803Z,1005.95
2019-01-18T05:32:28.795Z,1005.91
2019-01-18T05:33:28.811Z,1006.02
2019-01-18T05:34:29.604Z,1006.03
2019-01-18T05:35:28.802Z,1006.04
2019-01-18T05:36:28.813Z,1006.04
2019-01-18T05:37:28.730Z,1006.07
2019-01-18T05:38:29.633Z,1006.09
2019-01-18T05:40:45.715Z,1006.19
2019-01-18T05:41:52.704Z,1006.22
2019-01-18T05:42:45.629Z,1006.28
2019-01-18T05:43:45.654Z,1006.25
2019-01-18T05:44:45.620Z,1006.26
2019-01-18T05:45:45.549Z,1006.31
2019-01-18T05:46:45.577Z,1006.33
2019-01-18T05:47:45.552Z,1006.30
2019-01-18T05:48:45.539Z,1006.38
2019-01-18T05:49:45.601Z,1006.36
2019-01-18T05:50:45.548Z,1006.38
2019-01-18T05:51:45.502Z,1006.38
2019-01-18T05:52:46.193Z,1006.45
2019-01-18T05:53:45.481Z,1006.46
2019-01-18T05:54:45.493Z,1006.52
2019-01-18T05:55:45.441Z,1006.54
2019-01-18T05:56:45.458Z,1006.57
2019-01-18T05:57:45.464Z,1006.59
2019-01-18T05:58:45.424Z,1006.62
2019-01-18T05:59:45.438Z,1006.67
2019-01-18T06:00:45.380Z,1006.64
2019-01-18T06:01:45.384Z,1006.62
2019-01-18T06:02:45.380Z,1006.68
2019-01-18T06:03:45.424Z,1006.70
2019-01-18T06:04:45.368Z,1006.72
2019-01-18T06:05:45.345Z,1006.73
2019-01-18T06:06:45.357Z,1006.73
2019-01-18T06:07:45.320Z,1006.85
2019-01-18T06:08:45.306Z,1006.87
2019-01-18T06:09:45.317Z,1006.89
2019-01-18T06:10:45.317Z,1006.80
2019-01-18T06:11:45.276Z,1006.91
2019-01-18T06:12:45.256Z,1006.93
2019-01-18T06:13:45.262Z,1006.93
2019-01-18T06:14:45.278Z,1007.01
2019-01-18T06:15:45.274Z,1007.04
2019-01-18T06:16:45.237Z,1007.00
2019-01-18T06:17:45.206Z,1007.03
2019-01-18T06:18:45.229Z,1007.06
2019-01-18T06:19:45.207Z,1007.06
2019-01-18T06:20:45.207Z,1007.11
2019-01-18T06:21:53.320Z,1007.08
2019-01-18T06:22:53.208Z,1007.14
2019-01-18T06:23:52.717Z,1007.11
2019-01-18T06:24:53.329Z,1007.14
2019-01-18T06:25:53.340Z,1007.23
2019-01-18T06:26:45.219Z,1007.16
2019-01-18T06:27:45.145Z,1007.25
2019-01-18T06:28:45.143Z,1007.25
2019-01-18T06:29:45.165Z,1007.27
2019-01-18T06:30:45.066Z,1007.36
2019-01-18T06:31:45.068Z,1007.35
2019-01-18T06:32:45.054Z,1007.39
2019-01-18T06:33:45.095Z,1007.41
2019-01-18T06:34:45.065Z,1007.47
2019-01-18T06:35:45.029Z,1007.53
2019-01-18T06:36:45.021Z,1007.48
2019-01-18T06:37:45.009Z,1007.46
2019-01-18T06:38:44.997Z,1007.48
2019-01-18T06:39:45.028Z,1007.61
2019-01-18T06:40:44.983Z,1007.61
2019-01-18T06:41:44.986Z,1007.67
2019-01-18T06:42:44.946Z,1007.73
2019-01-18T06:43:45.012Z,1007.67
2019-01-18T06:44:44.958Z,1007.79
2019-01-18T06:45:44.935Z,1007.83
2019-01-18T06:46:52.847Z,1007.84
2019-01-18T06:47:44.954Z,1007.82
2019-01-18T06:48:44.937Z,1007.85
2019-01-18T06:49:44.940Z,1007.95
2019-01-18T06:50:44.873Z,1007.96
2019-01-18T06:51:44.863Z,1007.95
2019-01-18T06:52:44.843Z,1007.96
2019-01-18T06:53:44.879Z,1008.04
2019-01-18T06:54:44.879Z,1008.03
2019-01-18T06:55:44.836Z,1008.16
2019-01-18T06:56:44.868Z,1008.14
2019-01-18T06:57:51.934Z,1008.13
2019-01-18T06:58:53.404Z,1008.16
2019-01-18T06:59:44.929Z,1008.11
2019-01-18T07:00:52.434Z,1008.16
2019-01-18T07:01:52.557Z,1008.20
2019-01-18T07:02:54.586Z,1008.19
2019-01-18T07:03:53.844Z,1008.23
2019-01-18T07:04:52.838Z,1008.29
2019-01-18T07:05:55.496Z,1008.27
2019-01-18T07:06:45.648Z,1008.32
2019-01-18T07:07:45.470Z,1008.33
2019-01-18T07:08:45.328Z,1008.32
2019-01-18T07:09:45.283Z,1008.35
2019-01-18T07:10:44.775Z,1008.42
2019-01-18T07:11:44.688Z,1008.42
2019-01-18T07:12:44.725Z,1008.50
2019-01-18T07:13:46.014Z,1008.49
2019-01-18T07:14:44.746Z,1008.56
2019-01-18T07:15:44.677Z,1008.50
2019-01-18T07:16:44.688Z,1008.58
2019-01-18T07:17:44.679Z,1008.60
2019-01-18T07:18:44.600Z,1008.64
2019-01-18T07:19:49.571Z,1008.64
2019-01-18T07:20:44.649Z,1008.69
2019-01-18T07:21:44.602Z,1008.71
2019-01-18T07:22:44.637Z,1008.76
2019-01-18T07:23:44.581Z,1008.70
2019-01-18T07:24:44.613Z,1008.77
2019-01-18T07:25:44.612Z,1008.78
2019-01-18T07:26:44.519Z,1008.83
2019-01-18T07:27:44.499Z,1008.82
2019-01-18T07:28:44.473Z,1008.91
2019-01-18T07:29:44.513Z,1008.90
2019-01-18T07:30:44.471Z,1008.95
2019-01-18T07:31:44.457Z,1008.91
2019-01-18T07:32:44.452Z,1008.94
2019-01-18T07:33:44.558Z,1009.02
2019-01-18T07:34:45.008Z,1008.98
2019-01-18T07:35:44.459Z,1009.03
2019-01-18T07:36:44.411Z,1009.06
2019-01-18T07:37:44.397Z,1009.13
2019-01-18T07:38:44.420Z,1009.12
2019-01-18T07:39:45.073Z,1009.17
2019-01-18T07:40:44.488Z,1009.24
2019-01-18T07:41:44.400Z,1009.18
2019-01-18T07:42:44.346Z,1009.23
2019-01-18T07:43:44.398Z,1009.30
2019-01-18T07:44:44.328Z,1009.30
2019-01-18T07:45:44.313Z,1009.33
2019-01-18T07:46:44.315Z,1009.33
2019-01-18T07:47:44.268Z,1009.33
2019-01-18T07:48:45.007Z,1009.42
2019-01-18T07:49:44.299Z,1009.42
2019-01-18T07:50:44.291Z,1009.46
2019-01-18T07:52:05.610Z,1009.48
2019-01-18T07:52:51.264Z,1009.50
2019-01-18T07:53:45.949Z,1009.43
2019-01-18T07:54:44.273Z,1009.50
2019-01-18T07:55:52.613Z,1009.54
2019-01-18T07:59:08.081Z,1009.57
2019-01-18T08:00:14.723Z,1009.56
2019-01-18T08:01:21.875Z,1009.59
2019-01-18T08:04:28.829Z,1009.68
2019-01-18T08:05:29.077Z,1009.73
2019-01-18T08:06:29.116Z,1009.78
2019-01-18T08:07:28.801Z,1009.76
2019-01-18T08:08:28.807Z,1009.75
2019-01-18T08:09:28.757Z,1009.82
2019-01-18T08:10:28.726Z,1009.90
2019-01-18T08:11:28.772Z,1009.91
2019-01-18T08:12:28.678Z,1009.87
2019-01-18T08:13:28.699Z,1009.96
2019-01-18T08:14:28.681Z,1009.91
2019-01-18T08:15:28.676Z,1009.98
2019-01-18T08:16:28.665Z,1009.98
2019-01-18T08:17:28.674Z,1010.05
2019-01-18T08:18:29.631Z,1010.04
2019-01-18T08:19:29.631Z,1010.14
2019-01-18T08:20:29.635Z,1010.09
2019-01-18T08:21:28.615Z,1010.14
2019-01-18T08:22:28.596Z,1010.16
2019-01-18T08:23:28.603Z,1010.16
2019-01-18T08:24:28.614Z,1010.22
2019-01-18T08:25:29.087Z,1010.30
2019-01-18T08:26:28.564Z,1010.34
2019-01-18T08:27:28.577Z,1010.32
2019-01-18T08:28:28.559Z,1010.29
2019-01-18T08:29:28.511Z,1010.29
2019-01-18T08:30:30.122Z,1010.43
2019-01-18T08:31:29.090Z,1010.38
2019-01-18T08:32:28.490Z,1010.51
2019-01-18T08:33:28.472Z,1010.41
2019-01-18T08:34:28.437Z,1010.53
2019-01-18T08:35:28.488Z,1010.49
2019-01-18T08:36:28.439Z,1010.52
2019-01-18T08:37:28.459Z,1010.53
2019-01-18T08:38:28.434Z,1010.64
2019-01-18T08:39:28.608Z,1010.64
2019-01-18T08:40:28.436Z,1010.65
2019-01-18T08:41:28.378Z,1010.72
2019-01-18T08:42:29.079Z,1010.66
2019-01-18T08:43:28.369Z,1010.72
2019-01-18T08:44:28.371Z,1010.68
2019-01-18T08:45:28.393Z,1010.75
2019-01-18T08:46:28.365Z,1010.73
2019-01-18T08:47:28.325Z,1010.78
2019-01-18T08:48:28.327Z,1010.76
2019-01-18T08:49:28.350Z,1010.81
2019-01-18T08:50:28.340Z,1010.82
2019-01-18T08:51:28.318Z,1010.77
2019-01-18T08:52:28.308Z,1010.80
2019-01-18T08:53:28.284Z,1010.81
2019-01-18T08:54:28.266Z,1010.84
2019-01-18T08:55:28.261Z,1010.79
2019-01-18T08:56:29.119Z,1010.83
2019-01-18T08:57:28.257Z,1010.84
2019-01-18T08:58:28.272Z,1010.93
2019-01-18T08:59:28.201Z,1010.92
2019-01-18T09:00:29.103Z,1010.88
2019-01-18T09:01:28.272Z,1010.93
2019-01-18T09:02:28.192Z,1010.92
2019-01-18T09:03:28.180Z,1010.98
2019-01-18T09:04:28.156Z,1010.94
2019-01-18T09:05:28.190Z,1010.97
2019-01-18T09:06:28.192Z,1010.96
2019-01-18T09:07:28.143Z,1010.97
2019-01-18T09:08:28.132Z,1010.96
2019-01-18T09:09:28.110Z,1010.96
2019-01-18T09:10:28.101Z,1011.02
2019-01-18T09:11:29.296Z,1011.00
2019-01-18T09:12:28.143Z,1011.03
2019-01-18T09:13:28.054Z,1011.01
2019-01-18T09:14:36.760Z,1011.08
2019-01-18T09:15:28.371Z,1011.09
2019-01-18T09:16:36.446Z,1011.03
2019-01-18T09:17:28.559Z,1011.13
2019-01-18T09:18:36.619Z,1011.08
2019-01-18T09:19:36.311Z,1011.16
2019-01-18T09:20:36.585Z,1011.14
2019-01-18T09:21:28.216Z,1011.16
2019-01-18T09:22:35.930Z,1011.18
2019-01-18T09:23:28.239Z,1011.16
2019-01-18T09:24:27.987Z,1011.21
2019-01-18T09:25:28.204Z,1011.22
2019-01-18T09:26:28.029Z,1011.20
2019-01-18T09:27:27.923Z,1011.26
2019-01-18T09:28:36.133Z,1011.29
2019-01-18T09:29:28.203Z,1011.25
2019-01-18T09:30:36.860Z,1011.26
2019-01-18T09:31:29.281Z,1011.30
2019-01-18T09:32:27.906Z,1011.33
2019-01-18T09:33:27.999Z,1011.27
2019-01-18T09:34:27.863Z,1011.33
2019-01-18T09:35:27.820Z,1011.32
2019-01-18T09:36:37.010Z,1011.33
2019-01-18T09:37:36.945Z,1011.29
2019-01-18T09:38:28.029Z,1011.37
2019-01-18T09:39:36.012Z,1011.31
2019-01-18T09:40:27.875Z,1011.35
2019-01-18T09:41:27.822Z,1011.36
2019-01-18T09:42:27.756Z,1011.38
2019-01-18T09:43:27.821Z,1011.40
2019-01-18T09:44:27.778Z,1011.36
2019-01-18T09:45:27.705Z,1011.36
2019-01-18T09:46:27.711Z,1011.38
2019-01-18T09:47:29.402Z,1011.42
2019-01-18T09:48:27.701Z,1011.46
2019-01-18T09:49:27.689Z,1011.36
2019-01-18T09:50:27.664Z,1011.44
2019-01-18T09:51:27.675Z,1011.40
2019-01-18T09:52:27.633Z,1011.38
2019-01-18T09:53:27.661Z,1011.35
2019-01-18T09:54:27.642Z,1011.40
2019-01-18T09:55:27.648Z,1011.41
2019-01-18T09:56:27.673Z,1011.34
2019-01-18T09:57:28.350Z,1011.37
2019-01-18T09:58:27.630Z,1011.35
2019-01-18T09:59:27.565Z,1011.36
2019-01-18T10:00:27.590Z,1011.36
2019-01-18T10:01:27.620Z,1011.34
2019-01-18T10:02:27.582Z,1011.34
2019-01-18T10:03:28.332Z,1011.27
2019-01-18T10:04:27.508Z,1011.31
2019-01-18T10:05:27.505Z,1011.31
2019-01-18T10:06:27.511Z,1011.34
2019-01-18T10:07:27.507Z,1011.35
2019-01-18T10:08:27.517Z,1011.33
2019-01-18T10:09:27.487Z,1011.37
2019-01-18T10:10:27.443Z,1011.40
2019-01-18T10:11:27.531Z,1011.40
2019-01-18T10:12:38.100Z,1011.46
2019-01-18T10:13:27.652Z,1011.44
2019-01-18T10:14:27.409Z,1011.43
2019-01-18T10:15:27.512Z,1011.43
2019-01-18T10:16:27.422Z,1011.45
2019-01-18T10:17:27.415Z,1011.40
2019-01-18T10:18:27.423Z,1011.39
2019-01-18T10:19:27.346Z,1011.42
2019-01-18T10:20:27.339Z,1011.39
2019-01-18T10:21:27.386Z,1011.38
2019-01-18T10:22:27.378Z,1011.41
2019-01-18T10:23:27.339Z,1011.41
2019-01-18T10:24:27.312Z,1011.39
2019-01-18T10:25:27.290Z,1011.40
2019-01-18T10:26:27.332Z,1011.40
2019-01-18T10:27:27.255Z,1011.41
2019-01-18T10:28:27.276Z,1011.42
2019-01-18T10:29:29.964Z,1011.42
2019-01-18T10:30:28.098Z,1011.42
2019-01-18T10:31:27.261Z,1011.40
2019-01-18T10:32:27.215Z,1011.42
2019-01-18T10:33:27.220Z,1011.40
2019-01-18T10:34:27.240Z,1011.38
2019-01-18T10:35:27.204Z,1011.37
2019-01-18T10:36:27.199Z,1011.39
2019-01-18T10:37:27.179Z,1011.41
2019-01-18T10:38:27.146Z,1011.37
2019-01-18T10:39:27.185Z,1011.43
2019-01-18T10:40:27.141Z,1011.49
2019-01-18T10:41:27.147Z,1011.40
2019-01-18T10:42:27.129Z,1011.46
2019-01-18T10:43:27.144Z,1011.52
2019-01-18T10:44:27.150Z,1011.52
2019-01-18T10:45:27.090Z,1011.57
2019-01-18T10:46:27.317Z,1011.62
2019-01-18T10:47:27.786Z,1011.55
2019-01-18T10:48:27.106Z,1011.54
2019-01-18T10:49:27.047Z,1011.61
2019-01-18T10:50:27.029Z,1011.69
2019-01-18T10:51:27.071Z,1011.69
2019-01-18T10:52:27.001Z,1011.69
2019-01-18T10:53:27.010Z,1011.69
2019-01-18T10:54:27.016Z,1011.68
2019-01-18T10:55:27.009Z,1011.67
2019-01-18T10:56:26.967Z,1011.72
2019-01-18T10:57:26.984Z,1011.74
2019-01-18T10:58:26.953Z,1011.70
2019-01-18T10:59:26.943Z,1011.66
2019-01-18T11:00:27.901Z,1011.63
2019-01-18T11:01:26.928Z,1011.67
2019-01-18T11:02:26.937Z,1011.68
2019-01-18T11:03:26.896Z,1011.74
2019-01-18T11:04:26.888Z,1011.70
2019-01-18T11:05:37.525Z,1011.70
2019-01-18T11:06:35.508Z,1011.66
2019-01-18T11:07:35.060Z,1011.70
2019-01-18T11:09:44.539Z,1011.82
2019-01-18T11:10:44.488Z,1011.83
2019-01-18T11:11:44.442Z,1011.80
2019-01-18T11:12:44.406Z,1011.81
2019-01-18T11:13:44.431Z,1011.81
2019-01-18T11:14:44.371Z,1011.83
2019-01-18T11:15:44.363Z,1011.83
2019-01-18T11:16:44.370Z,1011.80
2019-01-18T11:17:44.336Z,1011.79
2019-01-18T11:18:44.363Z,1011.80
2019-01-18T11:19:52.309Z,1011.86
2019-01-18T11:20:44.338Z,1011.85
2019-01-18T11:21:44.312Z,1011.90
2019-01-18T11:22:44.263Z,1011.88
2019-01-18T11:23:44.267Z,1011.89
2019-01-18T11:24:44.271Z,1011.90
2019-01-18T11:25:44.236Z,1011.85
2019-01-18T11:26:44.244Z,1011.84
2019-01-18T11:27:44.215Z,1011.87
2019-01-18T11:28:44.249Z,1011.85
2019-01-18T11:29:44.271Z,1011.86
2019-01-18T11:30:44.202Z,1011.84
2019-01-18T11:31:44.179Z,1011.87
2019-01-18T11:32:44.196Z,1011.87
2019-01-18T11:33:44.230Z,1011.83
2019-01-18T11:34:44.186Z,1011.92
2019-01-18T11:35:44.153Z,1011.90
2019-01-18T11:36:44.142Z,1011.90
2019-01-18T11:37:44.134Z,1011.91
2019-01-18T11:38:44.127Z,1011.88
2019-01-18T11:39:44.147Z,1011.94
2019-01-18T11:40:44.098Z,1011.91
2019-01-18T11:41:44.096Z,1011.91
2019-01-18T11:42:44.089Z,1011.92
2019-01-18T11:43:44.075Z,1011.89
2019-01-18T11:44:44.028Z,1011.91
2019-01-18T11:45:44.065Z,1011.96
2019-01-18T11:46:44.015Z,1011.93
2019-01-18T11:47:44.037Z,1011.92
2019-01-18T11:48:44.059Z,1011.92
2019-01-18T11:49:44.000Z,1011.95
2019-01-18T11:50:44.001Z,1011.91
2019-01-18T11:51:43.979Z,1011.99
2019-01-18T11:52:44.791Z,1011.93
2019-01-18T11:53:43.963Z,1011.93
2019-01-18T11:54:44.113Z,1011.92
2019-01-18T11:55:44.203Z,1011.96
2019-01-18T11:56:43.898Z,1011.95
2019-01-18T11:57:43.942Z,1011.91
2019-01-18T11:58:44.792Z,1011.90
2019-01-18T11:59:43.948Z,1011.98
2019-01-18T12:00:43.859Z,1011.84
2019-01-18T12:01:43.852Z,1011.94
2019-01-18T12:02:43.870Z,1011.90
2019-01-18T12:03:43.832Z,1011.93
2019-01-18T12:04:43.815Z,1011.95
2019-01-18T12:05:43.807Z,1011.98
2019-01-18T12:06:43.827Z,1012.04
2019-01-18T12:07:43.825Z,1012.02
2019-01-18T12:08:43.930Z,1012.00
2019-01-18T12:09:43.764Z,1012.01
2019-01-18T12:10:43.766Z,1012.02
2019-01-18T12:11:44.292Z,1012.04
2019-01-18T12:12:43.732Z,1012.07
2019-01-18T12:13:43.722Z,1012.05
2019-01-18T12:14:44.334Z,1012.07
2019-01-18T12:15:51.441Z,1012.08
2019-01-18T12:16:51.421Z,1012.17